createdAt,value
2023-02-15T00:00:17.271Z,1025.46
2023-02-15T00:01:17.248Z,1025.41
2023-02-15T00:02:17.280Z,1025.39
2023-02-15T00:03:17.387Z,1025.38
2023-02-15T00:04:17.251Z,1025.34
2023-02-15T00:05:18.682Z,1025.34
2023-02-15T00:06:17.258Z,1025.33
2023-02-15T00:07:18.425Z,1025.27
2023-02-15T00:08:17.239Z,1025.32
2023-02-15T00:09:17.212Z,1025.32
2023-02-15T00:10:17.210Z,1025.31
2023-02-15T00:11:17.205Z,1025.30
2023-02-15T00:12:17.201Z,1025.28
2023-02-15T00:13:17.208Z,1025.28
2023-02-15T00:14:17.197Z,1025.32
2023-02-15T00:15:17.595Z,1025.32
2023-02-15T00:16:17.203Z,1025.30
2023-02-15T00:17:17.170Z,1025.29
2023-02-15T00:18:17.180Z,1025.29
2023-02-15T00:19:17.197Z,1025.24
2023-02-15T00:20:17.169Z,1025.24
2023-02-15T00:21:17.170Z,1025.24
2023-02-15T00:22:17.157Z,1025.25
2023-02-15T00:23:17.157Z,1025.19
2023-02-15T00:24:17.151Z,1025.19
2023-02-15T00:25:17.148Z,1025.24
2023-02-15T00:26:17.126Z,1025.22
2023-02-15T00:27:17.127Z,1025.22
2023-02-15T00:28:17.120Z,1025.21
2023-02-15T00:29:17.117Z,1025.20
2023-02-15T00:30:17.160Z,1025.19
2023-02-15T00:31:17.209Z,1025.19
2023-02-15T00:32:17.106Z,1025.16
2023-02-15T00:33:17.096Z,1025.18
2023-02-15T00:34:17.098Z,1025.13
2023-02-15T00:35:17.114Z,1025.17
2023-02-15T00:36:17.081Z,1025.18
2023-02-15T00:37:17.080Z,1025.16
2023-02-15T00:38:17.063Z,1025.19
2023-02-15T00:39:17.072Z,1025.16
2023-02-15T00:40:17.071Z,1025.17
2023-02-15T00:41:17.066Z,1025.21
2023-02-15T00:42:17.058Z,1025.19
2023-02-15T00:43:17.060Z,1025.20
2023-02-15T00:44:17.050Z,1025.20
2023-02-15T00:45:17.442Z,1025.20
2023-02-15T00:46:17.056Z,1025.21
2023-02-15T00:47:17.039Z,1025.22
2023-02-15T00:48:17.018Z,1025.22
2023-02-15T00:49:17.034Z,1025.18
2023-02-15T00:50:17.021Z,1025.17
2023-02-15T00:51:17.197Z,1025.16
2023-02-15T00:52:17.008Z,1025.15
2023-02-15T00:53:17.010Z,1025.12
2023-02-15T00:54:16.991Z,1025.10
2023-02-15T00:55:17.004Z,1025.07
2023-02-15T00:56:16.977Z,1025.07
2023-02-15T00:57:16.989Z,1025.09
2023-02-15T00:58:16.972Z,1025.09
2023-02-15T00:59:16.976Z,1025.08
2023-02-15T01:00:16.956Z,1025.08
2023-02-15T01:01:17.005Z,1025.05
2023-02-15T01:02:16.964Z,1025.02
2023-02-15T01:03:16.969Z,1025.04
2023-02-15T01:04:17.020Z,1025.07
2023-02-15T01:05:16.947Z,1025.06
2023-02-15T01:06:16.941Z,1025.07
2023-02-15T01:07:16.973Z,1025.09
2023-02-15T01:08:16.918Z,1025.09
2023-02-15T01:09:16.932Z,1025.07
2023-02-15T01:10:16.908Z,1025.09
2023-02-15T01:11:16.927Z,1025.06
2023-02-15T01:12:16.914Z,1025.08
2023-02-15T01:13:16.910Z,1025.08
2023-02-15T01:14:16.889Z,1025.10
2023-02-15T01:15:16.904Z,1025.04
2023-02-15T01:16:16.969Z,1025.06
2023-02-15T01:17:16.896Z,1025.07
2023-02-15T01:18:16.887Z,1025.04
2023-02-15T01:19:16.890Z,1025.06
2023-02-15T01:20:16.873Z,1025.06
2023-02-15T01:21:16.887Z,1025.07
2023-02-15T01:22:16.858Z,1025.08
2023-02-15T01:23:16.898Z,1025.07
2023-02-15T01:24:16.841Z,1025.05
2023-02-15T01:25:16.851Z,1025.07
2023-02-15T01:26:16.845Z,1025.06
2023-02-15T01:27:16.841Z,1025.00
2023-02-15T01:28:16.832Z,1024.94
2023-02-15T01:29:16.844Z,1024.98
2023-02-15T01:30:16.917Z,1024.98
2023-02-15T01:31:17.002Z,1024.98
2023-02-15T01:32:16.820Z,1024.98
2023-02-15T01:33:16.812Z,1024.96
2023-02-15T01:34:16.805Z,1024.99
2023-02-15T01:35:16.833Z,1024.98
2023-02-15T01:36:16.792Z,1024.97
2023-02-15T01:37:16.795Z,1024.99
2023-02-15T01:38:16.794Z,1024.98
2023-02-15T01:39:16.798Z,1024.94
2023-02-15T01:40:16.761Z,1024.99
2023-02-15T01:41:16.768Z,1024.98
2023-02-15T01:42:16.763Z,1025.02
2023-02-15T01:43:16.763Z,1025.02
2023-02-15T01:44:16.753Z,1024.97
2023-02-15T01:45:16.741Z,1024.97
2023-02-15T01:46:16.790Z,1024.94
2023-02-15T01:47:16.737Z,1024.95
2023-02-15T01:48:16.732Z,1024.90
2023-02-15T01:49:16.739Z,1024.88
2023-02-15T01:50:16.725Z,1024.85
2023-02-15T01:51:16.714Z,1024.89
2023-02-15T01:52:16.713Z,1024.87
2023-02-15T01:53:16.698Z,1024.85
2023-02-15T01:54:16.758Z,1024.83
2023-02-15T01:55:16.721Z,1024.84
2023-02-15T01:56:16.708Z,1024.82
2023-02-15T01:57:16.695Z,1024.86
2023-02-15T01:58:16.663Z,1024.83
2023-02-15T01:59:16.665Z,1024.84
2023-02-15T02:00:16.651Z,1024.84
2023-02-15T02:01:16.711Z,1024.79
2023-02-15T02:02:16.724Z,1024.82
2023-02-15T02:03:16.644Z,1024.84
2023-02-15T02:04:16.642Z,1024.80
2023-02-15T02:05:16.647Z,1024.77
2023-02-15T02:06:16.626Z,1024.77
2023-02-15T02:07:16.634Z,1024.75
2023-02-15T02:08:16.617Z,1024.77
2023-02-15T02:09:16.618Z,1024.78
2023-02-15T02:10:16.602Z,1024.75
2023-02-15T02:11:16.631Z,1024.74
2023-02-15T02:12:16.608Z,1024.78
2023-02-15T02:13:16.605Z,1024.78
2023-02-15T02:14:16.597Z,1024.76
2023-02-15T02:15:16.593Z,1024.73
2023-02-15T02:16:16.604Z,1024.68
2023-02-15T02:17:16.567Z,1024.66
2023-02-15T02:18:16.573Z,1024.65
2023-02-15T02:19:16.558Z,1024.66
2023-02-15T02:20:16.588Z,1024.68
2023-02-15T02:21:16.547Z,1024.68
2023-02-15T02:22:16.547Z,1024.60
2023-02-15T02:23:16.553Z,1024.63
2023-02-15T02:24:16.544Z,1024.62
2023-02-15T02:25:16.547Z,1024.63
2023-02-15T02:26:16.530Z,1024.62
2023-02-15T02:27:16.550Z,1024.64
2023-02-15T02:28:16.523Z,1024.61
2023-02-15T02:29:16.523Z,1024.57
2023-02-15T02:30:16.590Z,1024.61
2023-02-15T02:31:16.645Z,1024.54
2023-02-15T02:32:16.503Z,1024.51
2023-02-15T02:33:16.502Z,1024.48
2023-02-15T02:34:16.491Z,1024.47
2023-02-15T02:35:16.474Z,1024.45
2023-02-15T02:36:16.484Z,1024.42
2023-02-15T02:37:16.662Z,1024.44
2023-02-15T02:38:16.461Z,1024.44
2023-02-15T02:39:16.465Z,1024.40
2023-02-15T02:40:16.461Z,1024.38
2023-02-15T02:41:16.446Z,1024.42
2023-02-15T02:42:16.441Z,1024.39
2023-02-15T02:43:16.475Z,1024.35
2023-02-15T02:44:16.445Z,1024.39
2023-02-15T02:45:16.424Z,1024.32
2023-02-15T02:46:16.479Z,1024.34
2023-02-15T02:47:16.424Z,1024.33
2023-02-15T02:48:16.408Z,1024.29
2023-02-15T02:49:16.409Z,1024.30
2023-02-15T02:50:16.412Z,1024.27
2023-02-15T02:51:16.391Z,1024.23
2023-02-15T02:52:16.397Z,1024.24
2023-02-15T02:53:16.385Z,1024.21
2023-02-15T02:54:16.392Z,1024.18
2023-02-15T02:55:16.383Z,1024.18
2023-02-15T02:56:16.365Z,1024.18
2023-02-15T02:57:16.444Z,1024.16
2023-02-15T02:58:16.358Z,1024.13
2023-02-15T02:59:16.392Z,1024.13
2023-02-15T03:00:16.349Z,1024.12
2023-02-15T03:01:16.361Z,1024.10
2023-02-15T03:02:16.351Z,1024.09
2023-02-15T03:03:16.353Z,1024.07
2023-02-15T03:04:16.340Z,1024.12
2023-02-15T03:05:16.325Z,1024.07
2023-02-15T03:06:16.339Z,1024.10
2023-02-15T03:07:16.337Z,1024.06
2023-02-15T03:08:16.320Z,1024.12
2023-02-15T03:09:16.319Z,1024.11
2023-02-15T03:10:16.308Z,1024.08
2023-02-15T03:11:16.296Z,1024.09
2023-02-15T03:12:16.297Z,1024.08
2023-02-15T03:13:16.288Z,1024.09
2023-02-15T03:14:16.289Z,1024.08
2023-02-15T03:15:16.324Z,1024.09
2023-02-15T03:16:16.386Z,1024.09
2023-02-15T03:17:16.277Z,1024.08
2023-02-15T03:18:16.258Z,1024.05
2023-02-15T03:19:16.274Z,1024.02
2023-02-15T03:20:16.258Z,1024.05
2023-02-15T03:21:16.261Z,1024.06
2023-02-15T03:22:16.249Z,1024.03
2023-02-15T03:23:16.238Z,1023.99
2023-02-15T03:24:16.494Z,1023.98
2023-02-15T03:25:16.227Z,1023.95
2023-02-15T03:26:16.217Z,1023.97
2023-02-15T03:27:16.235Z,1023.95
2023-02-15T03:28:16.231Z,1023.95
2023-02-15T03:29:16.208Z,1023.92
2023-02-15T03:30:16.308Z,1023.93
2023-02-15T03:31:16.408Z,1023.95
2023-02-15T03:32:16.282Z,1023.95
2023-02-15T03:33:16.185Z,1023.92
2023-02-15T03:34:16.186Z,1023.95
2023-02-15T03:35:16.190Z,1023.90
2023-02-15T03:36:16.167Z,1023.89
2023-02-15T03:37:16.174Z,1023.91
2023-02-15T03:38:16.172Z,1023.93
2023-02-15T03:39:16.160Z,1023.94
2023-02-15T03:40:16.169Z,1023.96
2023-02-15T03:41:16.151Z,1023.97
2023-02-15T03:42:16.202Z,1023.92
2023-02-15T03:43:16.141Z,1023.95
2023-02-15T03:44:16.131Z,1023.92
2023-02-15T03:45:16.139Z,1023.96
2023-02-15T03:46:16.156Z,1023.90
2023-02-15T03:47:16.156Z,1023.95
2023-02-15T03:48:16.101Z,1023.90
2023-02-15T03:49:16.101Z,1023.86
2023-02-15T03:50:16.107Z,1023.85
2023-02-15T03:51:16.111Z,1023.85
2023-02-15T03:52:16.108Z,1023.83
2023-02-15T03:53:16.090Z,1023.87
2023-02-15T03:54:16.085Z,1023.82
2023-02-15T03:55:16.091Z,1023.84
2023-02-15T03:56:16.077Z,1023.85
2023-02-15T03:57:16.055Z,1023.90
2023-02-15T03:58:16.054Z,1023.91
2023-02-15T03:59:16.046Z,1023.98
2023-02-15T04:00:16.054Z,1023.97
2023-02-15T04:01:16.100Z,1023.97
2023-02-15T04:02:16.039Z,1023.93
2023-02-15T04:03:16.127Z,1023.91
2023-02-15T04:04:16.029Z,1023.95
2023-02-15T04:05:16.030Z,1023.96
2023-02-15T04:06:16.011Z,1023.95
2023-02-15T04:07:16.009Z,1023.88
2023-02-15T04:08:16.002Z,1023.91
2023-02-15T04:09:15.996Z,1023.90
2023-02-15T04:10:15.989Z,1023.87
2023-02-15T04:11:16.008Z,1023.90
2023-02-15T04:12:16.000Z,1023.93
2023-02-15T04:13:15.974Z,1023.96
2023-02-15T04:14:15.979Z,1023.88
2023-02-15T04:15:15.982Z,1023.92
2023-02-15T04:16:15.988Z,1023.84
2023-02-15T04:17:15.963Z,1023.84
2023-02-15T04:18:15.943Z,1023.80
2023-02-15T04:19:15.985Z,1023.86
2023-02-15T04:20:15.929Z,1023.88
2023-02-15T04:21:15.942Z,1023.87
2023-02-15T04:22:15.930Z,1023.89
2023-02-15T04:23:15.922Z,1023.92
2023-02-15T04:24:15.913Z,1023.86
2023-02-15T04:25:15.911Z,1023.86
2023-02-15T04:26:15.900Z,1023.80
2023-02-15T04:27:17.741Z,1023.84
2023-02-15T04:28:15.895Z,1023.81
2023-02-15T04:29:15.896Z,1023.77
2023-02-15T04:30:15.930Z,1023.80
2023-02-15T04:31:15.969Z,1023.81
2023-02-15T04:32:16.023Z,1023.80
2023-02-15T04:33:15.865Z,1023.82
2023-02-15T04:34:15.858Z,1023.76
2023-02-15T04:35:15.876Z,1023.77
2023-02-15T04:36:15.861Z,1023.78
2023-02-15T04:37:15.863Z,1023.71
2023-02-15T04:38:15.864Z,1023.73
2023-02-15T04:39:15.838Z,1023.79
2023-02-15T04:40:18.698Z,1023.76
2023-02-15T04:41:15.814Z,1023.82
2023-02-15T04:42:15.817Z,1023.78
2023-02-15T04:43:15.826Z,1023.78
2023-02-15T04:44:15.808Z,1023.75
2023-02-15T04:45:15.797Z,1023.76
2023-02-15T04:46:15.817Z,1023.74
2023-02-15T04:47:15.798Z,1023.74
2023-02-15T04:48:15.795Z,1023.78
2023-02-15T04:49:15.794Z,1023.78
2023-02-15T04:50:15.795Z,1023.77
2023-02-15T04:51:15.797Z,1023.81
2023-02-15T04:52:15.774Z,1023.79
2023-02-15T04:53:15.754Z,1023.79
2023-02-15T04:54:15.788Z,1023.78
2023-02-15T04:55:15.757Z,1023.77
2023-02-15T04:56:15.755Z,1023.75
2023-02-15T04:57:15.740Z,1023.75
2023-02-15T04:58:15.747Z,1023.73
2023-02-15T04:59:15.739Z,1023.75
2023-02-15T05:00:15.720Z,1023.70
2023-02-15T05:01:15.769Z,1023.67
2023-02-15T05:02:15.722Z,1023.68
2023-02-15T05:03:15.716Z,1023.68
2023-02-15T05:04:15.763Z,1023.64
2023-02-15T05:05:15.706Z,1023.66
2023-02-15T05:06:15.707Z,1023.67
2023-02-15T05:07:15.784Z,1023.64
2023-02-15T05:08:15.691Z,1023.63
2023-02-15T05:09:15.709Z,1023.69
2023-02-15T05:10:15.672Z,1023.67
2023-02-15T05:11:15.674Z,1023.68
2023-02-15T05:12:15.677Z,1023.68
2023-02-15T05:13:15.648Z,1023.68
2023-02-15T05:14:15.648Z,1023.69
2023-02-15T05:15:15.641Z,1023.70
2023-02-15T05:16:15.663Z,1023.67
2023-02-15T05:17:15.629Z,1023.64
2023-02-15T05:18:15.627Z,1023.63
2023-02-15T05:19:15.618Z,1023.64
2023-02-15T05:20:15.630Z,1023.62
2023-02-15T05:21:15.603Z,1023.67
2023-02-15T05:22:15.615Z,1023.66
2023-02-15T05:23:15.645Z,1023.69
2023-02-15T05:24:15.612Z,1023.66
2023-02-15T05:25:15.587Z,1023.66
2023-02-15T05:26:15.590Z,1023.65
2023-02-15T05:27:15.585Z,1023.64
2023-02-15T05:28:15.577Z,1023.67
2023-02-15T05:29:15.578Z,1023.69
2023-02-15T05:30:15.635Z,1023.67
2023-02-15T05:31:15.770Z,1023.69
2023-02-15T05:32:15.712Z,1023.66
2023-02-15T05:33:15.559Z,1023.60
2023-02-15T05:34:15.561Z,1023.61
2023-02-15T05:35:15.562Z,1023.59
2023-02-15T05:36:15.540Z,1023.55
2023-02-15T05:37:15.541Z,1023.60
2023-02-15T05:38:15.537Z,1023.60
2023-02-15T05:39:15.534Z,1023.65
2023-02-15T05:40:15.532Z,1023.69
2023-02-15T05:41:15.519Z,1023.65
2023-02-15T05:42:15.515Z,1023.65
2023-02-15T05:43:15.495Z,1023.62
2023-02-15T05:44:15.496Z,1023.65
2023-02-15T05:45:15.508Z,1023.58
2023-02-15T05:46:15.523Z,1023.62
2023-02-15T05:47:15.483Z,1023.58
2023-02-15T05:48:15.494Z,1023.59
2023-02-15T05:49:15.479Z,1023.50
2023-02-15T05:50:15.475Z,1023.51
2023-02-15T05:51:15.454Z,1023.45
2023-02-15T05:52:15.467Z,1023.47
2023-02-15T05:53:15.455Z,1023.47
2023-02-15T05:54:15.465Z,1023.51
2023-02-15T05:55:15.469Z,1023.50
2023-02-15T05:56:15.459Z,1023.57
2023-02-15T05:57:15.465Z,1023.55
2023-02-15T05:58:15.452Z,1023.58
2023-02-15T05:59:15.430Z,1023.57
2023-02-15T06:00:15.437Z,1023.57
2023-02-15T06:01:15.419Z,1023.59
2023-02-15T06:02:15.432Z,1023.58
2023-02-15T06:03:15.483Z,1023.60
2023-02-15T06:04:15.394Z,1023.54
2023-02-15T06:05:15.394Z,1023.56
2023-02-15T06:06:15.408Z,1023.55
2023-02-15T06:07:15.381Z,1023.57
2023-02-15T06:08:15.381Z,1023.55
2023-02-15T06:09:15.368Z,1023.59
2023-02-15T06:10:15.397Z,1023.61
2023-02-15T06:11:15.395Z,1023.63
2023-02-15T06:12:15.370Z,1023.55
2023-02-15T06:13:15.363Z,1023.55
2023-02-15T06:14:15.351Z,1023.58
2023-02-15T06:15:15.342Z,1023.53
2023-02-15T06:16:15.416Z,1023.54
2023-02-15T06:17:15.334Z,1023.51
2023-02-15T06:18:15.343Z,1023.49
2023-02-15T06:19:15.330Z,1023.48
2023-02-15T06:20:15.332Z,1023.46
2023-02-15T06:21:15.328Z,1023.47
2023-02-15T06:22:15.318Z,1023.42
2023-02-15T06:23:15.307Z,1023.46
2023-02-15T06:24:15.306Z,1023.50
2023-02-15T06:25:15.309Z,1023.46
2023-02-15T06:26:15.320Z,1023.45
2023-02-15T06:27:15.304Z,1023.46
2023-02-15T06:28:15.295Z,1023.51
2023-02-15T06:29:15.285Z,1023.50
2023-02-15T06:30:15.307Z,1023.54
2023-02-15T06:31:15.425Z,1023.57
2023-02-15T06:32:15.271Z,1023.55
2023-02-15T06:33:15.279Z,1023.55
2023-02-15T06:34:15.264Z,1023.58
2023-02-15T06:35:15.263Z,1023.59
2023-02-15T06:36:15.278Z,1023.59
2023-02-15T06:37:15.462Z,1023.62
2023-02-15T06:38:15.262Z,1023.68
2023-02-15T06:39:15.250Z,1023.64
2023-02-15T06:40:15.233Z,1023.63
2023-02-15T06:41:15.235Z,1023.62
2023-02-15T06:42:15.239Z,1023.61
2023-02-15T06:43:15.277Z,1023.63
2023-02-15T06:44:15.232Z,1023.61
2023-02-15T06:45:15.232Z,1023.64
2023-02-15T06:46:15.280Z,1023.62
2023-02-15T06:47:15.218Z,1023.60
2023-02-15T06:48:15.227Z,1023.64
2023-02-15T06:49:15.208Z,1023.65
2023-02-15T06:50:15.199Z,1023.65
2023-02-15T06:51:15.191Z,1023.63
2023-02-15T06:52:15.196Z,1023.64
2023-02-15T06:53:15.183Z,1023.64
2023-02-15T06:54:15.189Z,1023.64
2023-02-15T06:55:15.180Z,1023.69
2023-02-15T06:56:15.172Z,1023.72
2023-02-15T06:57:15.161Z,1023.75
2023-02-15T06:58:15.181Z,1023.72
2023-02-15T06:59:15.202Z,1023.73
2023-02-15T07:00:15.187Z,1023.75
2023-02-15T07:01:15.222Z,1023.70
2023-02-15T07:02:15.170Z,1023.67
2023-02-15T07:03:15.160Z,1023.61
2023-02-15T07:04:15.156Z,1023.65
2023-02-15T07:05:15.209Z,1023.64
2023-02-15T07:06:15.148Z,1023.61
2023-02-15T07:07:15.165Z,1023.55
2023-02-15T07:08:15.138Z,1023.57
2023-02-15T07:09:15.106Z,1023.58
2023-02-15T07:10:15.144Z,1023.56
2023-02-15T07:11:15.155Z,1023.57
2023-02-15T07:12:15.107Z,1023.56
2023-02-15T07:13:15.104Z,1023.61
2023-02-15T07:14:15.099Z,1023.62
2023-02-15T07:15:15.101Z,1023.63
2023-02-15T07:16:15.181Z,1023.64
2023-02-15T07:17:35.036Z,1023.62
2023-02-15T07:18:15.080Z,1023.62
2023-02-15T07:19:15.075Z,1023.64
2023-02-15T07:20:15.093Z,1023.60
2023-02-15T07:21:15.075Z,1023.61
2023-02-15T07:22:15.061Z,1023.58
2023-02-15T07:23:15.049Z,1023.59
2023-02-15T07:24:15.051Z,1023.56
2023-02-15T07:25:15.064Z,1023.57
2023-02-15T07:26:15.044Z,1023.57
2023-02-15T07:27:15.024Z,1023.58
2023-02-15T07:28:15.038Z,1023.54
2023-02-15T07:29:15.027Z,1023.56
2023-02-15T07:30:15.094Z,1023.51
2023-02-15T07:31:15.069Z,1023.49
2023-02-15T07:32:15.056Z,1023.45
2023-02-15T07:33:15.008Z,1023.47
2023-02-15T07:34:15.003Z,1023.43
2023-02-15T07:35:15.003Z,1023.43
2023-02-15T07:36:14.991Z,1023.38
2023-02-15T07:37:14.995Z,1023.37
2023-02-15T07:38:14.987Z,1023.29
2023-02-15T07:39:14.979Z,1023.32
2023-02-15T07:40:14.969Z,1023.34
2023-02-15T07:41:14.992Z,1023.30
2023-02-15T07:42:14.977Z,1023.31
2023-02-15T07:43:14.988Z,1023.30
2023-02-15T07:44:14.994Z,1023.29
2023-02-15T07:45:14.958Z,1023.26
2023-02-15T07:46:15.000Z,1023.26
2023-02-15T07:47:14.961Z,1023.22
2023-02-15T07:48:14.954Z,1023.18
2023-02-15T07:49:14.928Z,1023.15
2023-02-15T07:50:14.937Z,1023.19
2023-02-15T07:51:14.931Z,1023.15
2023-02-15T07:52:14.932Z,1023.10
2023-02-15T07:53:14.927Z,1023.13
2023-02-15T07:54:14.909Z,1023.09
2023-02-15T07:55:14.910Z,1023.14
2023-02-15T07:56:14.917Z,1023.12
2023-02-15T07:57:14.917Z,1023.08
2023-02-15T07:58:57.312Z,1023.06
2023-02-15T07:59:57.309Z,1023.07
2023-02-15T08:00:57.310Z,1023.06
2023-02-15T08:01:57.651Z,1023.09
2023-02-15T08:03:00.088Z,1023.05
2023-02-15T08:03:57.728Z,1023.07
2023-02-15T08:04:57.303Z,1023.04
2023-02-15T08:05:57.507Z,1023.00
2023-02-15T08:06:57.284Z,1023.05
2023-02-15T08:07:57.280Z,1023.03
2023-02-15T08:08:57.273Z,1023.02
2023-02-15T08:09:57.264Z,1022.97
2023-02-15T08:10:57.263Z,1023.04
2023-02-15T08:11:57.260Z,1023.02
2023-02-15T08:12:57.239Z,1023.05
2023-02-15T08:13:57.259Z,1023.04
2023-02-15T08:14:57.234Z,1023.01
2023-02-15T08:15:57.289Z,1023.02
2023-02-15T08:16:57.310Z,1023.02
2023-02-15T08:17:57.238Z,1022.97
2023-02-15T08:18:57.238Z,1022.95
2023-02-15T08:19:57.214Z,1022.97
2023-02-15T08:20:57.223Z,1022.95
2023-02-15T08:21:57.226Z,1022.89
2023-02-15T08:22:57.213Z,1022.91
2023-02-15T08:23:57.198Z,1022.93
2023-02-15T08:24:57.202Z,1022.92
2023-02-15T08:25:57.192Z,1022.91
2023-02-15T08:26:57.210Z,1022.91
2023-02-15T08:27:57.177Z,1022.95
2023-02-15T08:28:57.215Z,1022.96
2023-02-15T08:29:57.218Z,1022.96
2023-02-15T08:30:57.206Z,1022.99
2023-02-15T08:31:57.312Z,1022.96
2023-02-15T08:32:57.172Z,1022.97
2023-02-15T08:33:57.163Z,1022.95
2023-02-15T08:34:57.188Z,1022.96
2023-02-15T08:35:57.149Z,1022.98
2023-02-15T08:36:57.136Z,1022.96
2023-02-15T08:37:57.129Z,1022.96
2023-02-15T08:38:57.156Z,1022.91
2023-02-15T08:39:57.135Z,1022.93
2023-02-15T08:40:57.119Z,1022.92
2023-02-15T08:41:57.124Z,1022.92
2023-02-15T08:42:57.127Z,1022.90
2023-02-15T08:43:57.113Z,1022.87
2023-02-15T08:44:57.109Z,1022.84
2023-02-15T08:45:57.132Z,1022.84
2023-02-15T08:46:57.090Z,1022.81
2023-02-15T08:47:57.096Z,1022.81
2023-02-15T08:48:57.082Z,1022.78
2023-02-15T08:49:57.084Z,1022.76
2023-02-15T08:50:57.110Z,1022.75
2023-02-15T08:51:57.083Z,1022.73
2023-02-15T08:52:57.086Z,1022.77
2023-02-15T08:53:57.067Z,1022.78
2023-02-15T08:54:57.049Z,1022.79
2023-02-15T08:55:57.050Z,1022.78
2023-02-15T08:56:57.041Z,1022.75
2023-02-15T08:57:57.066Z,1022.76
2023-02-15T08:58:57.175Z,1022.76
2023-02-15T08:59:57.039Z,1022.75
2023-02-15T09:00:57.062Z,1022.79
2023-02-15T09:01:57.052Z,1022.81
2023-02-15T09:02:57.026Z,1022.81
2023-02-15T09:03:57.022Z,1022.81
2023-02-15T09:04:57.004Z,1022.84
2023-02-15T09:05:57.026Z,1022.82
2023-02-15T09:06:57.035Z,1022.79
2023-02-15T09:07:56.994Z,1022.81
2023-02-15T09:08:57.072Z,1022.80
2023-02-15T09:09:56.974Z,1022.74
2023-02-15T09:10:56.992Z,1022.75
2023-02-15T09:11:59.498Z,1022.79
2023-02-15T09:12:56.960Z,1022.75
2023-02-15T09:13:57.088Z,1022.75
2023-02-15T09:14:56.979Z,1022.76
2023-02-15T09:15:56.955Z,1022.77
2023-02-15T09:16:57.093Z,1022.76
2023-02-15T09:17:56.950Z,1022.74
2023-02-15T09:18:56.967Z,1022.71
2023-02-15T09:19:56.921Z,1022.73
2023-02-15T09:20:56.924Z,1022.72
2023-02-15T09:21:56.914Z,1022.71
2023-02-15T09:22:59.033Z,1022.70
2023-02-15T09:23:56.906Z,1022.78
2023-02-15T09:24:56.918Z,1022.73
2023-02-15T09:25:56.908Z,1022.74
2023-02-15T09:26:56.906Z,1022.76
2023-02-15T09:27:56.903Z,1022.79
2023-02-15T09:28:56.892Z,1022.81
2023-02-15T09:29:56.933Z,1022.79
2023-02-15T09:30:57.066Z,1022.84
2023-02-15T09:31:56.911Z,1022.88
2023-02-15T09:32:56.880Z,1022.90
2023-02-15T09:33:56.879Z,1022.88
2023-02-15T09:34:56.880Z,1022.88
2023-02-15T09:35:56.852Z,1022.90
2023-02-15T09:36:56.864Z,1022.89
2023-02-15T09:37:56.853Z,1022.89
2023-02-15T09:38:57.021Z,1022.91
2023-02-15T09:39:56.843Z,1022.89
2023-02-15T09:40:56.821Z,1022.89
2023-02-15T09:41:56.815Z,1022.87
2023-02-15T09:42:56.824Z,1022.87
2023-02-15T09:43:56.814Z,1022.87
2023-02-15T09:44:56.800Z,1022.84
2023-02-15T09:45:56.818Z,1022.85
2023-02-15T09:46:56.794Z,1022.87
2023-02-15T09:47:56.782Z,1022.85
2023-02-15T09:48:56.798Z,1022.88
2023-02-15T09:49:56.793Z,1022.84
2023-02-15T09:50:56.786Z,1022.88
2023-02-15T09:51:56.775Z,1022.80
2023-02-15T09:52:56.782Z,1022.81
2023-02-15T09:53:56.775Z,1022.82
2023-02-15T09:54:56.794Z,1022.81
2023-02-15T09:55:56.758Z,1022.84
2023-02-15T09:56:56.762Z,1022.87
2023-02-15T09:57:56.741Z,1022.86
2023-02-15T09:58:56.741Z,1022.86
2023-02-15T09:59:56.728Z,1022.86
2023-02-15T10:00:56.767Z,1022.85
2023-02-15T10:01:56.731Z,1022.83
2023-02-15T10:02:56.746Z,1022.82
2023-02-15T10:03:56.721Z,1022.82
2023-02-15T10:04:56.808Z,1022.83
2023-02-15T10:05:56.722Z,1022.82
2023-02-15T10:06:56.697Z,1022.84
2023-02-15T10:07:56.753Z,1022.77
2023-02-15T10:08:56.702Z,1022.80
2023-02-15T10:09:56.693Z,1022.78
2023-02-15T10:10:56.716Z,1022.77
2023-02-15T10:11:56.671Z,1022.76
2023-02-15T10:12:56.684Z,1022.77
2023-02-15T10:13:56.675Z,1022.80
2023-02-15T10:14:56.672Z,1022.74
2023-02-15T10:15:56.665Z,1022.70
2023-02-15T10:16:56.781Z,1022.69
2023-02-15T10:17:56.641Z,1022.70
2023-02-15T10:18:56.647Z,1022.70
2023-02-15T10:19:56.627Z,1022.75
2023-02-15T10:20:56.642Z,1022.70
2023-02-15T10:21:56.618Z,1022.71
2023-02-15T10:22:56.625Z,1022.77
2023-02-15T10:23:56.627Z,1022.77
2023-02-15T10:24:56.612Z,1022.81
2023-02-15T10:25:56.621Z,1022.78
2023-02-15T10:26:56.622Z,1022.86
2023-02-15T10:27:56.591Z,1022.86
2023-02-15T10:28:56.605Z,1022.77
2023-02-15T10:29:56.620Z,1022.82
2023-02-15T10:30:56.800Z,1022.74
2023-02-15T10:31:56.727Z,1022.75
2023-02-15T10:32:56.569Z,1022.73
2023-02-15T10:33:56.570Z,1022.76
2023-02-15T10:34:56.561Z,1022.71
2023-02-15T10:35:56.552Z,1022.74
2023-02-15T10:36:56.552Z,1022.77
2023-02-15T10:37:56.545Z,1022.75
2023-02-15T10:38:56.564Z,1022.72
2023-02-15T10:39:56.549Z,1022.69
2023-02-15T10:40:56.530Z,1022.69
2023-02-15T10:41:56.529Z,1022.68
2023-02-15T10:42:56.551Z,1022.68
2023-02-15T10:43:56.511Z,1022.67
2023-02-15T10:44:56.524Z,1022.65
2023-02-15T10:45:56.519Z,1022.66
2023-02-15T10:46:56.517Z,1022.64
2023-02-15T10:47:56.493Z,1022.64
2023-02-15T10:48:56.517Z,1022.67
2023-02-15T10:49:56.480Z,1022.67
2023-02-15T10:50:56.494Z,1022.64
2023-02-15T10:51:56.488Z,1022.63
2023-02-15T10:52:56.485Z,1022.63
2023-02-15T10:53:56.463Z,1022.56
2023-02-15T10:54:56.477Z,1022.57
2023-02-15T10:55:56.450Z,1022.58
2023-02-15T10:56:56.488Z,1022.55
2023-02-15T10:57:56.456Z,1022.54
2023-02-15T10:58:56.614Z,1022.53
2023-02-15T10:59:56.433Z,1022.50
2023-02-15T11:00:56.445Z,1022.48
2023-02-15T11:01:56.557Z,1022.49
2023-02-15T11:02:56.422Z,1022.55
2023-02-15T11:03:56.426Z,1022.51
2023-02-15T11:04:56.545Z,1022.50
2023-02-15T11:05:56.412Z,1022.48
2023-02-15T11:06:56.417Z,1022.45
2023-02-15T11:07:56.404Z,1022.41
2023-02-15T11:08:56.396Z,1022.41
2023-02-15T11:09:56.387Z,1022.40
2023-02-15T11:10:56.385Z,1022.40
2023-02-15T11:11:56.388Z,1022.41
2023-02-15T11:12:56.385Z,1022.38
2023-02-15T11:13:56.369Z,1022.38
2023-02-15T11:14:56.398Z,1022.38
2023-02-15T11:15:56.392Z,1022.38
2023-02-15T11:16:56.374Z,1022.31
2023-02-15T11:17:56.342Z,1022.33
2023-02-15T11:18:56.348Z,1022.31
2023-02-15T11:19:56.339Z,1022.28
2023-02-15T11:20:56.333Z,1022.24
2023-02-15T11:21:56.325Z,1022.21
2023-02-15T11:22:56.330Z,1022.28
2023-02-15T11:23:56.319Z,1022.23
2023-02-15T11:24:56.328Z,1022.26
2023-02-15T11:25:56.319Z,1022.27
2023-02-15T11:26:56.342Z,1022.25
2023-02-15T11:27:56.307Z,1022.20
2023-02-15T11:28:56.310Z,1022.19
2023-02-15T11:29:56.314Z,1022.21
2023-02-15T11:30:56.520Z,1022.18
2023-02-15T11:31:56.480Z,1022.21
2023-02-15T11:32:56.278Z,1022.16
2023-02-15T11:33:56.271Z,1022.17
2023-02-15T11:34:56.292Z,1022.13
2023-02-15T11:35:56.267Z,1022.13
2023-02-15T11:36:56.269Z,1022.10
2023-02-15T11:37:56.248Z,1022.12
2023-02-15T11:38:56.266Z,1022.14
2023-02-15T11:39:56.238Z,1022.17
2023-02-15T11:40:56.250Z,1022.10
2023-02-15T11:41:56.244Z,1022.13
2023-02-15T11:42:56.245Z,1022.10
2023-02-15T11:43:56.244Z,1022.07
2023-02-15T11:44:56.246Z,1022.07
2023-02-15T11:45:56.229Z,1022.06
2023-02-15T11:46:56.240Z,1022.03
2023-02-15T11:47:56.212Z,1022.02
2023-02-15T11:48:56.209Z,1022.02
2023-02-15T11:49:56.185Z,1022.01
2023-02-15T11:50:56.193Z,1021.99
2023-02-15T11:51:56.198Z,1022.03
2023-02-15T11:52:56.185Z,1021.99
2023-02-15T11:53:56.174Z,1021.98
2023-02-15T11:54:56.185Z,1021.98
2023-02-15T11:55:56.177Z,1021.97
2023-02-15T11:56:56.167Z,1021.96
2023-02-15T11:57:56.186Z,1021.94
2023-02-15T11:58:56.144Z,1021.90
2023-02-15T11:59:56.155Z,1021.92
2023-02-15T12:00:56.153Z,1021.87
2023-02-15T12:01:56.146Z,1021.89
2023-02-15T12:02:56.295Z,1021.85
2023-02-15T12:03:56.184Z,1021.81
2023-02-15T12:04:56.118Z,1021.84
2023-02-15T12:05:56.155Z,1021.80